Itupeva, Brazil
Current Conditions -  °F | °C
As of 2:00 AM on Sunday 23 Nov 2014 (Local Time) from SBPS Reporting Station
Rain Showers Rain Showers  
Wind Chill: 75°   Ceiling: Unl
Heat Index: 75°   Visibility: 4mi
Dew Point: 72°   Wind: 7mph
Humidity: 89%   Direction: 60°ENE
Pressure: 29.94"   Gusts: NA
Location:  17.48°S, 40.48°W
Report Text: SBPS 230400Z 06006KT 6000 VCSH SCT015 SCT020 24/22 Q1014
Loading
Personal Weather Stations






























Interactive Weather Map New forecast layout! Learn more

10-Day Weather Forecast

Advertisements
Track Severe Weather on mobile